^^
Your Local Weather - Clay, NY Station Historical Data
Daily Summary for January 27, 2018 Units:  English    Metric   Both
« Previous Day
Next Day »
Daily Weekly Monthly Yearly Custom
  High: Low: Average:
Temperature: 50.3 °F 22.9 °F 38.8 °F
Dew Point: 41.2 °F 16.8 °F 28.8 °F
Humidity: 90% 43% 69%
Wind Speed: 7.0mph 0.0mph 3mph
Wind Gust: 11.0mph - -
Wind- - SSE
Pressure: 30.34 in 30.05 in -
Precipitation: 0.24 in    
Historical Graphs
 
 
Tabular Data for January 27, 2018
Time Temperature Dew Point Pressure Wind Wind Speed Wind Gust Humidity Rainfall Rate (Hourly) solar
00:02 24.6 °F 17.5 °F 30.34 in East 2.0 mph 2.0 mph 74% 0.00 in 0 W/m2
00:08 24.6 °F 17.5 °F 30.34 in East 2.0 mph 2.0 mph 74% 0.00 in 0 W/m2
00:13 24.7 °F 17.6 °F 30.34 in East 2.0 mph 3.0 mph 74% 0.00 in 0 W/m2
00:19 24.5 °F 17.4 °F 30.33 in East 2.0 mph 2.0 mph 74% 0.00 in 0 W/m2
00:26 24.5 °F 17.7 °F 30.33 in East 2.0 mph 5.0 mph 75% 0.00 in 0 W/m2
00:32 24.8 °F 18.0 °F 30.33 in ENE 3.0 mph 5.0 mph 75% 0.00 in 0 W/m2
00:38 24.6 °F 17.8 °F 30.32 in ENE 3.0 mph 5.0 mph 75% 0.00 in 0 W/m2
00:43 24.6 °F 17.8 °F 30.32 in ENE 3.0 mph 7.0 mph 75% 0.00 in 0 W/m2
00:49 24.9 °F 17.8 °F 30.32 in ENE 3.0 mph 4.0 mph 74% 0.00 in 0 W/m2
00:55 24.7 °F 17.9 °F 30.31 in East 3.0 mph 4.0 mph 75% 0.00 in 0 W/m2
01:02 24.3 °F 17.5 °F 30.31 in East 2.0 mph 2.0 mph 75% 0.00 in 0 W/m2
01:08 23.7 °F 17.2 °F 30.31 in ENE 2.0 mph 3.0 mph 76% 0.00 in 0 W/m2
01:13 23.4 °F 16.9 °F 30.31 in ENE 3.0 mph 4.0 mph 76% 0.00 in 0 W/m2
01:20 22.9 °F 16.8 °F 30.31 in ENE 3.0 mph 4.0 mph 77% 0.00 in 0 W/m2
01:25 23.3 °F 17.5 °F 30.30 in ENE 3.0 mph 5.0 mph 78% 0.00 in 0 W/m2
01:32 23.9 °F 18.0 °F 30.30 in NE 3.0 mph 3.0 mph 78% 0.00 in 0 W/m2
01:38 24.1 °F 17.9 °F 30.30 in ENE 3.0 mph 4.0 mph 77% 0.00 in 0 W/m2
01:43 23.9 °F 17.7 °F 30.30 in ENE 3.0 mph 3.0 mph 77% 0.00 in 0 W/m2
01:49 24.0 °F 18.1 °F 30.28 in ESE 3.0 mph 3.0 mph 78% 0.00 in 0 W/m2
01:56 25.1 °F 19.2 °F 30.30 in East 3.0 mph 3.0 mph 78% 0.00 in 0 W/m2
02:02 24.9 °F 18.4 °F 30.30 in East 2.0 mph 3.0 mph 76% 0.00 in 0 W/m2
02:08 24.2 °F 18.0 °F 30.30 in East 2.0 mph 3.0 mph 77% 0.00 in 0 W/m2
02:14 23.9 °F 18.0 °F 30.30 in East 2.0 mph 3.0 mph 78% 0.00 in 0 W/m2
02:20 23.6 °F 18.0 °F 30.30 in East 3.0 mph 3.0 mph 79% 0.00 in 0 W/m2
02:25 24.2 °F 18.9 °F 30.30 in East 2.0 mph 4.0 mph 80% 0.00 in 0 W/m2
02:32 24.4 °F 18.8 °F 30.29 in East 3.0 mph 3.0 mph 79% 0.00 in 0 W/m2
02:38 24.6 °F 19.0 °F 30.28 in East 3.0 mph 3.0 mph 79% 0.00 in 0 W/m2
02:43 25.0 °F 19.1 °F 30.28 in East 3.0 mph 3.0 mph 78% 0.00 in 0 W/m2
02:49 25.4 °F 19.2 °F 30.28 in East 3.0 mph 3.0 mph 77% 0.00 in 0 W/m2
02:56 25.0 °F 18.8 °F 30.27 in East 2.0 mph 3.0 mph 77% 0.00 in 0 W/m2
03:02 25.3 °F 19.1 °F 30.28 in ENE 2.0 mph 2.0 mph 77% 0.00 in 0 W/m2
03:08 24.9 °F 18.7 °F 30.28 in East 2.0 mph 3.0 mph 77% 0.00 in 0 W/m2
03:14 24.0 °F 18.1 °F 30.28 in NE 2.0 mph 5.0 mph 78% 0.00 in 0 W/m2
03:19 23.9 °F 18.3 °F 30.28 in East 2.0 mph 2.0 mph 79% 0.00 in 0 W/m2
03:25 23.7 °F 18.4 °F 30.27 in East 3.0 mph 3.0 mph 80% 0.00 in 0 W/m2
03:32 23.7 °F 18.4 °F 30.27 in ENE 3.0 mph 5.0 mph 80% 0.00 in 0 W/m2
03:38 24.2 °F 18.9 °F 30.27 in ENE 3.0 mph 5.0 mph 80% 0.00 in 0 W/m2
03:43 24.6 °F 19.3 °F 30.26 in East 2.0 mph 4.0 mph 80% 0.00 in 0 W/m2
03:52 24.9 °F 19.0 °F 30.27 in ESE 2.0 mph 2.0 mph 78% 0.00 in 0 W/m2
03:58 24.2 °F 18.3 °F 30.27 in ENE 1.0 mph 2.0 mph 78% 0.00 in 0 W/m2
04:04 23.9 °F 18.3 °F 30.26 in ENE 1.0 mph 1.0 mph 79% 0.00 in 0 W/m2
04:09 24.0 °F 18.7 °F 30.26 in ENE 1.0 mph 2.0 mph 80% 0.00 in 0 W/m2
04:15 23.8 °F 18.5 °F 30.26 in ENE 2.0 mph 2.0 mph 80% 0.00 in 0 W/m2
04:22 24.4 °F 19.4 °F 30.26 in ENE 1.0 mph 2.0 mph 81% 0.00 in 0 W/m2
04:28 24.5 °F 19.2 °F 30.25 in ENE 2.0 mph 2.0 mph 80% 0.00 in 0 W/m2
04:34 24.7 °F 19.7 °F 30.25 in ENE 1.0 mph 2.0 mph 81% 0.00 in 0 W/m2
04:39 25.1 °F 19.8 °F 30.25 in East 2.0 mph 2.0 mph 80% 0.00 in 0 W/m2
04:46 25.6 °F 20.3 °F 30.25 in ENE 2.0 mph 5.0 mph 80% 0.00 in 0 W/m2
04:52 26.4 °F 20.8 °F 30.25 in ENE 2.0 mph 3.0 mph 79% 0.00 in 0 W/m2
04:58 26.0 °F 20.4 °F 30.25 in ENE 2.0 mph 3.0 mph 79% 0.00 in 0 W/m2
05:03 25.7 °F 20.1 °F 30.25 in ENE 3.0 mph 3.0 mph 79% 0.00 in 0 W/m2
05:09 26.1 °F 20.8 °F 30.24 in ENE 3.0 mph 4.0 mph 80% 0.00 in 0 W/m2
05:16 26.2 °F 20.6 °F 30.23 in East 3.0 mph 4.0 mph 79% 0.00 in 0 W/m2
05:22 26.3 °F 20.7 °F 30.23 in East 3.0 mph 3.0 mph 79% 0.00 in 0 W/m2
05:28 26.7 °F 20.8 °F 30.23 in ENE 2.0 mph 3.0 mph 78% 0.00 in 0 W/m2
05:33 27.2 °F 21.2 °F 30.23 in East 3.0 mph 7.0 mph 78% 0.00 in 0 W/m2
05:39 27.3 °F 21.0 °F 30.23 in ENE 3.0 mph 4.0 mph 77% 0.00 in 0 W/m2
05:45 27.4 °F 21.1 °F 30.22 in NE 2.0 mph 4.0 mph 77% 0.00 in 0 W/m2
05:52 27.1 °F 20.5 °F 30.23 in ENE 3.0 mph 4.0 mph 76% 0.00 in 0 W/m2
05:58 27.0 °F 20.7 °F 30.22 in ENE 3.0 mph 4.0 mph 77% 0.00 in 0 W/m2
06:04 26.7 °F 20.8 °F 30.22 in ENE 2.0 mph 3.0 mph 78% 0.00 in 0 W/m2
06:09 26.5 °F 20.6 °F 30.22 in ENE 2.0 mph 2.0 mph 78% 0.00 in 0 W/m2
06:16 26.9 °F 21.3 °F 30.22 in ENE 2.0 mph 4.0 mph 79% 0.00 in 0 W/m2
06:22 26.7 °F 20.8 °F 30.22 in ENE 2.0 mph 2.0 mph 78% 0.00 in 0 W/m2
06:28 26.8 °F 21.2 °F 30.22 in East 2.0 mph 3.0 mph 79% 0.00 in 0 W/m2
06:33 27.1 °F 21.2 °F 30.22 in East 2.0 mph 3.0 mph 78% 0.00 in 0 W/m2
06:39 26.6 °F 21.0 °F 30.22 in East 3.0 mph 3.0 mph 79% 0.00 in 0 W/m2
06:45 26.4 °F 20.8 °F 30.22 in East 2.0 mph 3.0 mph 79% 0.00 in 0 W/m2
06:52 26.7 °F 21.4 °F 30.21 in East 2.0 mph 3.0 mph 80% 0.00 in 0 W/m2
06:58 26.6 °F 21.0 °F 30.21 in ENE 2.0 mph 3.0 mph 79% 0.00 in 0 W/m2
07:04 26.1 °F 20.5 °F 30.21 in ENE 2.0 mph 3.0 mph 79% 0.00 in 0 W/m2
07:09 26.0 °F 20.7 °F 30.21 in ENE 2.0 mph 2.0 mph 80% 0.00 in 0 W/m2
07:15 26.5 °F 21.5 °F 30.20 in ENE 1.0 mph 3.0 mph 81% 0.00 in 0 W/m2
07:22 26.5 °F 21.5 °F 30.20 in ENE 1.0 mph 2.0 mph 81% 0.00 in 7 W/m2
07:28 27.4 °F 22.3 °F 30.20 in ENE 1.0 mph 2.0 mph 81% 0.00 in 9 W/m2
07:34 28.0 °F 22.3 °F 30.20 in ENE 1.0 mph 1.0 mph 79% 0.00 in 12 W/m2
07:39 28.1 °F 22.4 °F 30.20 in Calm   1.0 mph 79% 0.00 in 16 W/m2
07:45 27.9 °F 21.9 °F 30.20 in ENE 1.0 mph 2.0 mph 78% 0.00 in 25 W/m2
07:52 29.0 °F 23.3 °F 30.20 in SE 1.0 mph 3.0 mph 79% 0.00 in 30 W/m2
07:58 29.1 °F 22.8 °F 30.20 in SE 1.0 mph 3.0 mph 77% 0.00 in 37 W/m2
08:03 31.9 °F 25.8 °F 30.19 in SW 1.0 mph 1.0 mph 78% 0.00 in 46 W/m2
08:09 39.1 °F 28.7 °F 30.19 in SSE 4.0 mph 5.0 mph 66% 0.00 in 53 W/m2
08:16 41.7 °F 26.7 °F 30.19 in SW 5.0 mph 8.0 mph 55% 0.00 in 54 W/m2
08:22 42.3 °F 25.9 °F 30.19 in SSE 5.0 mph 5.0 mph 52% 0.00 in 56 W/m2
08:28 42.4 °F 25.5 °F 30.18 in SSE 4.0 mph 7.0 mph 51% 0.00 in 62 W/m2
08:33 42.7 °F 25.3 °F 30.18 in SSW 5.0 mph 7.0 mph 50% 0.00 in 65 W/m2
08:39 43.1 °F 25.7 °F 30.18 in South 5.0 mph 5.0 mph 50% 0.00 in 65 W/m2
08:45 43.2 °F 25.3 °F 30.18 in South 5.0 mph 5.0 mph 49% 0.00 in 67 W/m2
08:52 43.5 °F 25.1 °F 30.18 in SW 5.0 mph 9.0 mph 48% 0.00 in 65 W/m2
08:58 43.9 °F 24.9 °F 30.18 in South 5.0 mph 10.0 mph 47% 0.00 in 76 W/m2
09:03 44.0 °F 25.0 °F 30.18 in SW 5.0 mph 6.0 mph 47% 0.00 in 88 W/m2
09:09 44.2 °F 25.7 °F 30.18 in South 4.0 mph 5.0 mph 48% 0.00 in 114 W/m2
09:15 44.5 °F 25.5 °F 30.18 in South 4.0 mph 5.0 mph 47% 0.00 in 135 W/m2
09:22 44.9 °F 25.3 °F 30.18 in SW 4.0 mph 6.0 mph 46% 0.00 in 116 W/m2
09:28 45.0 °F 25.4 °F 30.18 in South 4.0 mph 7.0 mph 46% 0.00 in 107 W/m2
09:33 45.1 °F 25.5 °F 30.18 in SW 4.0 mph 8.0 mph 46% 0.00 in 113 W/m2
09:39 45.3 °F 25.7 °F 30.18 in SSE 4.0 mph 5.0 mph 46% 0.00 in 165 W/m2
09:45 45.7 °F 26.1 °F 30.18 in South 4.0 mph 6.0 mph 46% 0.00 in 213 W/m2
09:52 46.1 °F 25.9 °F 30.18 in SW 5.0 mph 5.0 mph 45% 0.00 in 288 W/m2
09:58 46.7 °F 25.9 °F 30.17 in South 6.0 mph 9.0 mph 44% 0.00 in 216 W/m2
10:03 46.9 °F 26.1 °F 30.17 in SSW 7.0 mph 8.0 mph 44% 0.00 in 260 W/m2
10:09 46.9 °F 26.1 °F 30.17 in SSW 6.0 mph 7.0 mph 44% 0.00 in 204 W/m2
10:15 47.1 °F 26.3 °F 30.17 in SW 6.0 mph 8.0 mph 44% 0.00 in 265 W/m2
10:22 47.4 °F 26.0 °F 30.16 in SSW 6.0 mph 9.0 mph 43% 0.00 in 232 W/m2
10:28 47.3 °F 26.5 °F 30.17 in SW 5.0 mph 9.0 mph 44% 0.00 in 141 W/m2
10:34 47.2 °F 26.4 °F 30.17 in SW 5.0 mph 8.0 mph 44% 0.00 in 107 W/m2
10:39 47.2 °F 26.4 °F 30.16 in SW 6.0 mph 6.0 mph 44% 0.00 in 114 W/m2
10:45 47.2 °F 26.4 °F 30.16 in SSE 6.0 mph 6.0 mph 44% 0.00 in 116 W/m2
10:52 47.2 °F 26.9 °F 30.15 in South 6.0 mph 7.0 mph 45% 0.00 in 100 W/m2
10:58 47.1 °F 26.3 °F 30.16 in SSW 6.0 mph 7.0 mph 44% 0.00 in 88 W/m2
11:03 47.0 °F 26.7 °F 30.15 in South 5.0 mph 10.0 mph 45% 0.00 in 84 W/m2
11:09 46.9 °F 26.6 °F 30.15 in South 6.0 mph 7.0 mph 45% 0.00 in 116 W/m2
11:15 47.0 °F 26.7 °F 30.14 in SSW 6.0 mph 7.0 mph 45% 0.00 in 90 W/m2
11:22 47.0 °F 27.3 °F 30.14 in SSW 6.0 mph 6.0 mph 46% 0.00 in 100 W/m2
11:28 47.1 °F 27.4 °F 30.13 in SSW 5.0 mph 6.0 mph 46% 0.00 in 90 W/m2
11:33 47.2 °F 27.5 °F 30.13 in SSW 5.0 mph 6.0 mph 46% 0.00 in 98 W/m2
11:39 47.2 °F 27.5 °F 30.13 in WSW 5.0 mph 8.0 mph 46% 0.00 in 76 W/m2
11:42 47.2 °F 27.5 °F 30.12 in South 5.0 mph 8.0 mph 46% 0.00 in 65 W/m2
11:48 47.2 °F 28.0 °F 30.12 in SE 5.0 mph 5.0 mph 47% 0.00 in 74 W/m2
11:53 47.1 °F 27.9 °F 30.12 in SSW 4.0 mph 7.0 mph 47% 0.00 in 69 W/m2
11:59 47.2 °F 28.0 °F 30.12 in SSW 5.0 mph 5.0 mph 47% 0.00 in 93 W/m2
12:05 47.3 °F 28.1 °F 30.12 in SSW 5.0 mph 11.0 mph 47% 0.00 in 65 W/m2
12:12 47.4 °F 28.2 °F 30.12 in SSW 5.0 mph 5.0 mph 47% 0.00 in 83 W/m2
12:18 47.5 °F 28.3 °F 30.12 in SW 4.0 mph 5.0 mph 47% 0.00 in 65 W/m2
12:23 47.5 °F 28.3 °F 30.12 in SW 3.0 mph 5.0 mph 47% 0.00 in 51 W/m2
12:30 47.5 °F 28.3 °F 30.11 in SSW 3.0 mph 6.0 mph 47% 0.00 in 40 W/m2
12:35 47.4 °F 28.7 °F 30.10 in South 3.0 mph 6.0 mph 48% 0.00 in 35 W/m2
12:42 47.3 °F 29.1 °F 30.09 in South 4.0 mph 5.0 mph 49% 0.00 in 37 W/m2
12:48 47.3 °F 29.1 °F 30.09 in SSW 3.0 mph 5.0 mph 49% 0.00 in 30 W/m2
12:53 47.4 °F 29.7 °F 30.10 in West 3.0 mph 3.0 mph 50% 0.00 in 28 W/m2
12:59 47.5 °F 29.8 °F 30.10 in SW 3.0 mph 3.0 mph 50% 0.00 in 21 W/m2
13:05 47.5 °F 29.8 °F 30.08 in SW 3.0 mph 4.0 mph 50% 0.00 in 30 W/m2
13:12 47.6 °F 29.9 °F 30.09 in South 3.0 mph 4.0 mph 50% 0.00 in 33 W/m2
13:18 47.8 °F 29.5 °F 30.08 in South 3.0 mph 4.0 mph 49% 0.00 in 32 W/m2
13:23 47.9 °F 30.1 °F 30.08 in SSW 3.0 mph 5.0 mph 50% 0.00 in 42 W/m2
13:30 48.0 °F 30.2 °F 30.08 in SSW 2.0 mph 4.0 mph 50% 0.00 in 51 W/m2
13:35 48.1 °F 30.3 °F 30.08 in SW 2.0 mph 4.0 mph 50% 0.00 in 39 W/m2
13:42 48.3 °F 30.0 °F 30.08 in SW 3.0 mph 3.0 mph 49% 0.00 in 35 W/m2
13:48 48.5 °F 30.2 °F 30.08 in SW 4.0 mph 6.0 mph 49% 0.00 in 42 W/m2
13:53 48.6 °F 30.3 °F 30.08 in SSE 4.0 mph 4.0 mph 49% 0.00 in 40 W/m2
13:59 48.6 °F 30.3 °F 30.07 in SSW 3.0 mph 7.0 mph 49% 0.00 in 49 W/m2
14:05 48.9 °F 30.6 °F 30.08 in South 4.0 mph 7.0 mph 49% 0.00 in 46 W/m2
14:12 49.2 °F 31.3 °F 30.07 in SSW 4.0 mph 4.0 mph 50% 0.00 in 46 W/m2
14:18 49.2 °F 31.3 °F 30.07 in SW 3.0 mph 5.0 mph 50% 0.00 in 42 W/m2
14:23 49.4 °F 31.5 °F 30.07 in SSW 3.0 mph 3.0 mph 50% 0.00 in 40 W/m2
14:29 49.6 °F 31.7 °F 30.07 in South 4.0 mph 4.0 mph 50% 0.00 in 40 W/m2
14:35 49.8 °F 31.9 °F 30.06 in SSW 4.0 mph 5.0 mph 50% 0.00 in 60 W/m2
14:42 49.8 °F 31.9 °F 30.07 in South 4.0 mph 4.0 mph 50% 0.00 in 47 W/m2
14:48 49.9 °F 32.0 °F 30.07 in SSE 4.0 mph 6.0 mph 50% 0.00 in 49 W/m2
14:53 50.0 °F 32.1 °F 30.06 in SW 5.0 mph 8.0 mph 50% 0.00 in 42 W/m2
14:59 50.1 °F 32.2 °F 30.06 in SSW 5.0 mph 5.0 mph 50% 0.00 in 40 W/m2
15:05 50.2 °F 32.3 °F 30.05 in SSE 5.0 mph 8.0 mph 50% 0.00 in 54 W/m2
15:12 50.3 °F 32.4 °F 30.06 in SSW 5.0 mph 5.0 mph 50% 0.00 in 33 W/m2
15:18 50.2 °F 32.3 °F 30.06 in SW 3.0 mph 5.0 mph 50% 0.00 in 11 W/m2
15:23 50.2 °F 32.3 °F 30.06 in SSW 4.0 mph 4.0 mph 50% 0.00 in 11 W/m2
15:30 50.3 °F 32.4 °F 30.05 in SSW 4.0 mph 4.0 mph 50% 0.00 in 12 W/m2
15:35 50.1 °F 32.7 °F 30.05 in SSW 3.0 mph 5.0 mph 51% 0.00 in 9 W/m2
15:42 50.1 °F 32.7 °F 30.05 in SSW 4.0 mph 4.0 mph 51% 0.00 in 9 W/m2
15:48 50.0 °F 32.6 °F 30.05 in SW 4.0 mph 4.0 mph 51% 0.00 in 9 W/m2
15:53 49.9 °F 32.5 °F 30.05 in South 3.0 mph 4.0 mph 51% 0.00 in 7 W/m2
16:00 49.8 °F 32.9 °F 30.05 in South 3.0 mph 3.0 mph 52% 0.00 in 7 W/m2
16:05 49.6 °F 33.2 °F 30.05 in South 2.0 mph 4.0 mph 53% 0.00 in 9 W/m2
16:12 49.5 °F 33.5 °F 30.05 in SSW 3.0 mph 3.0 mph 54% 0.00 in 7 W/m2
16:18 49.4 °F 33.9 °F 30.05 in SSW 3.0 mph 3.0 mph 55% 0.00 in 9 W/m2
16:23 49.0 °F 34.0 °F 30.05 in SW 2.0 mph 3.0 mph 56% 0.00 in 0 W/m2
16:30 49.0 °F 34.0 °F 30.05 in South 3.0 mph 3.0 mph 56% 0.00 in 0 W/m2
16:35 48.9 °F 34.3 °F 30.05 in South 3.0 mph 4.0 mph 57% 0.00 in 0 W/m2
16:42 48.8 °F 34.7 °F 30.05 in SW 3.0 mph 4.0 mph 58% 0.00 in 0 W/m2
16:48 48.7 °F 35.0 °F 30.06 in SW 3.0 mph 6.0 mph 59% 0.00 in 0 W/m2
16:53 48.4 °F 35.6 °F 30.06 in SW 2.0 mph 3.0 mph 61% 0.00 in 0 W/m2
17:00 47.8 °F 36.2 °F 30.06 in SW 2.0 mph 2.0 mph 64% 0.00 in 0 W/m2
17:06 47.3 °F 36.5 °F 30.07 in WSW 2.0 mph 5.0 mph 66% 0.07 in 0 W/m2
17:12 46.8 °F 36.8 °F 30.07 in SW 3.0 mph 3.0 mph 68% 0.07 in 0 W/m2
17:18 46.5 °F 36.9 °F 30.07 in SW 3.0 mph 4.0 mph 69% 0.04 in 0 W/m2
17:23 46.1 °F 36.9 °F 30.07 in SSW 2.0 mph 3.0 mph 70% 0.04 in 0 W/m2
17:29 45.6 °F 37.1 °F 30.07 in SSW 2.0 mph 2.0 mph 72% 0.04 in 0 W/m2
17:35 44.9 °F 36.8 °F 30.07 in SSW 1.0 mph 2.0 mph 73% 0.05 in 0 W/m2
17:42 44.2 °F 37.1 °F 30.07 in SSW 1.0 mph 2.0 mph 76% 0.05 in 0 W/m2
17:48 44.0 °F 37.6 °F 30.07 in SSW 2.0 mph 3.0 mph 78% 0.04 in 0 W/m2
17:53 43.8 °F 37.7 °F 30.07 in SSW 2.0 mph 3.0 mph 79% 0.04 in 0 W/m2
18:00 43.5 °F 37.7 °F 30.07 in SSW 2.0 mph 2.0 mph 80% 0.07 in 0 W/m2
18:05 43.4 °F 38.0 °F 30.08 in SW 2.0 mph 5.0 mph 81% 0.07 in 0 W/m2
18:12 43.1 °F 38.0 °F 30.07 in SW 2.0 mph 3.0 mph 82% 0.12 in 0 W/m2
18:18 43.0 °F 37.9 °F 30.08 in SW 2.0 mph 3.0 mph 82% 0.08 in 0 W/m2
18:23 42.9 °F 38.1 °F 30.08 in South 3.0 mph 5.0 mph 83% 0.06 in 0 W/m2
18:30 43.0 °F 38.2 °F 30.08 in South 4.0 mph 4.0 mph 83% 0.06 in 0 W/m2
18:35 42.9 °F 38.1 °F 30.08 in WSW 4.0 mph 4.0 mph 83% 0.06 in 0 W/m2
18:42 43.0 °F 38.2 °F 30.08 in SW 3.0 mph 4.0 mph 83% 0.05 in 0 W/m2
18:48 42.9 °F 38.1 °F 30.08 in SSW 3.0 mph 7.0 mph 83% 0.05 in 0 W/m2
18:53 42.8 °F 38.0 °F 30.08 in SW 3.0 mph 3.0 mph 83% 0.08 in 0 W/m2
19:00 42.7 °F 38.2 °F 30.08 in South 3.0 mph 3.0 mph 84% 0.06 in 0 W/m2
19:05 42.6 °F 38.1 °F 30.08 in SSW 2.0 mph 3.0 mph 84% 0.05 in 0 W/m2
19:12 42.5 °F 38.0 °F 30.09 in SW 2.0 mph 3.0 mph 84% 0.05 in 0 W/m2
19:20 42.3 °F 38.1 °F 30.09 in SSW 1.0 mph 2.0 mph 85% 0.05 in 0 W/m2
19:25 42.2 °F 38.0 °F 30.09 in South 1.0 mph 3.0 mph 85% 0.05 in 0 W/m2
19:32 42.0 °F 38.1 °F 30.09 in South 3.0 mph 3.0 mph 86% 0.00 in 0 W/m2
19:38 42.0 °F 38.1 °F 30.09 in South 2.0 mph 4.0 mph 86% 0.00 in 0 W/m2
19:43 42.0 °F 38.1 °F 30.09 in South 3.0 mph 4.0 mph 86% 0.00 in 0 W/m2
19:49 42.0 °F 38.1 °F 30.09 in SSW 3.0 mph 3.0 mph 86% 0.07 in 0 W/m2
19:56 42.0 °F 38.4 °F 30.09 in SSW 3.0 mph 6.0 mph 87% 0.05 in 0 W/m2
20:02 42.0 °F 38.4 °F 30.09 in South 3.0 mph 3.0 mph 87% 0.05 in 0 W/m2
20:08 42.1 °F 38.5 °F 30.09 in South 3.0 mph 5.0 mph 87% 0.06 in 0 W/m2
20:13 42.1 °F 38.8 °F 30.10 in SSW 3.0 mph 6.0 mph 88% 0.06 in 0 W/m2
20:19 42.1 °F 38.8 °F 30.09 in South 3.0 mph 3.0 mph 88% 0.04 in 0 W/m2
20:25 42.2 °F 38.9 °F 30.09 in SSW 3.0 mph 4.0 mph 88% 0.00 in 0 W/m2
20:32 42.3 °F 39.0 °F 30.09 in South 3.0 mph 3.0 mph 88% 0.00 in 0 W/m2
20:38 42.4 °F 39.1 °F 30.09 in South 3.0 mph 4.0 mph 88% 0.00 in 0 W/m2
20:44 42.4 °F 39.1 °F 30.10 in South 3.0 mph 5.0 mph 88% 0.00 in 0 W/m2
20:50 42.3 °F 39.3 °F 30.10 in SSW 2.0 mph 2.0 mph 89% 0.00 in 0 W/m2
20:55 42.4 °F 39.4 °F 30.10 in SSW 2.0 mph 2.0 mph 89% 0.00 in 0 W/m2
21:02 42.3 °F 39.3 °F 30.10 in SSW 2.0 mph 2.0 mph 89% 0.05 in 0 W/m2
21:08 42.3 °F 39.3 °F 30.10 in SSW 2.0 mph 4.0 mph 89% 0.05 in 0 W/m2
21:13 42.4 °F 39.4 °F 30.10 in SSW 2.0 mph 2.0 mph 89% 0.04 in 0 W/m2
21:19 42.5 °F 39.8 °F 30.10 in SW 1.0 mph 2.0 mph 90% 0.00 in 0 W/m2
21:25 42.6 °F 39.9 °F 30.11 in SW 2.0 mph 7.0 mph 90% 0.00 in 0 W/m2
21:32 42.7 °F 40.0 °F 30.10 in SSW 3.0 mph 4.0 mph 90% 0.00 in 0 W/m2
21:38 42.6 °F 39.9 °F 30.10 in SSE 3.0 mph 5.0 mph 90% 0.00 in 0 W/m2
21:44 42.6 °F 39.9 °F 30.10 in SSE 3.0 mph 5.0 mph 90% 0.00 in 0 W/m2
21:49 42.8 °F 40.1 °F 30.10 in SW 3.0 mph 4.0 mph 90% 0.00 in 0 W/m2
21:55 43.1 °F 40.4 °F 30.10 in South 3.0 mph 7.0 mph 90% 0.00 in 0 W/m2
22:02 43.3 °F 40.6 °F 30.10 in SW 2.0 mph 3.0 mph 90% 0.00 in 0 W/m2
22:08 43.4 °F 40.7 °F 30.09 in SSW 2.0 mph 3.0 mph 90% 0.00 in 0 W/m2
22:13 43.6 °F 40.9 °F 30.09 in SW 2.0 mph 3.0 mph 90% 0.00 in 0 W/m2
22:19 43.7 °F 41.0 °F 30.09 in SSW 3.0 mph 3.0 mph 90% 0.00 in 0 W/m2
22:25 43.9 °F 41.2 °F 30.09 in South 3.0 mph 5.0 mph 90% 0.00 in 0 W/m2
22:32 43.9 °F 41.2 °F 30.10 in SW 3.0 mph 3.0 mph 90% 0.00 in 0 W/m2
22:38 44.0 °F 41.0 °F 30.09 in SW 3.0 mph 5.0 mph 89% 0.00 in 0 W/m2
22:43 44.1 °F 41.1 °F 30.10 in SW 4.0 mph 4.0 mph 89% 0.00 in 0 W/m2
22:50 44.1 °F 41.1 °F 30.10 in SW 3.0 mph 3.0 mph 89% 0.00 in 0 W/m2
22:55 44.0 °F 41.0 °F 30.10 in SSW 2.0 mph 3.0 mph 89% 0.00 in 0 W/m2
23:02 44.0 °F 40.7 °F 30.09 in SW 2.0 mph 3.0 mph 88% 0.00 in 0 W/m2
23:08 44.1 °F 40.8 °F 30.09 in WSW 3.0 mph 3.0 mph 88% 0.00 in 0 W/m2
23:13 44.1 °F 40.8 °F 30.09 in SW 3.0 mph 4.0 mph 88% 0.00 in 0 W/m2
23:19 44.1 °F 40.8 °F 30.10 in SW 2.0 mph 5.0 mph 88% 0.00 in 0 W/m2
23:26 44.0 °F 40.7 °F 30.10 in WSW 2.0 mph 5.0 mph 88% 0.00 in 0 W/m2
23:32 43.9 °F 40.6 °F 30.10 in WSW 2.0 mph 4.0 mph 88% 0.00 in 0 W/m2
23:38 44.0 °F 40.4 °F 30.11 in SSW 2.0 mph 4.0 mph 87% 0.00 in 0 W/m2
23:43 44.0 °F 40.7 °F 30.11 in SW 2.0 mph 4.0 mph 88% 0.00 in 0 W/m2
23:49 44.2 °F 40.6 °F 30.11 in SW 3.0 mph 4.0 mph 87% 0.00 in 0 W/m2
23:56 44.2 °F 40.6 °F 30.11 in WSW 3.0 mph 4.0 mph 87% 0.00 in 0 W/m2
Country Meadow, Clay, NY, USA
Compliments of Weather Underground - 2 mb